createdAt,value
2022-12-28T00:02:16.352Z,8.27
2022-12-28T00:04:44.630Z,8.26
2022-12-28T00:07:13.112Z,8.35
2022-12-28T00:09:41.164Z,8.36
2022-12-28T00:12:09.360Z,8.55
2022-12-28T00:14:37.398Z,8.72
2022-12-28T00:17:05.413Z,8.80
2022-12-28T00:19:33.555Z,8.96
2022-12-28T00:22:01.673Z,9.08
2022-12-28T00:24:29.989Z,9.12
2022-12-28T00:26:58.274Z,8.69
2022-12-28T00:29:26.650Z,7.85
2022-12-28T00:31:55.930Z,7.72
2022-12-28T00:34:25.070Z,7.60
2022-12-28T00:37:08.702Z,7.59
2022-12-28T00:39:42.527Z,7.69
2022-12-28T00:42:11.225Z,7.71
2022-12-28T00:44:40.301Z,7.89
2022-12-28T00:47:08.863Z,7.77
2022-12-28T00:49:37.079Z,7.62
2022-12-28T00:52:05.709Z,7.61
2022-12-28T00:54:35.820Z,7.70
2022-12-28T00:57:04.199Z,7.88
2022-12-28T00:59:32.578Z,7.94
2022-12-28T01:02:01.189Z,8.00
2022-12-28T01:04:29.542Z,7.84
2022-12-28T01:06:57.714Z,7.63
2022-12-28T01:09:25.983Z,7.62
2022-12-28T01:11:54.121Z,7.69
2022-12-28T01:14:25.229Z,7.64
2022-12-28T01:16:53.413Z,7.72
2022-12-28T01:19:23.666Z,7.69
2022-12-28T01:21:52.415Z,7.46
2022-12-28T01:24:22.702Z,7.35
2022-12-28T01:26:50.735Z,7.24
2022-12-28T01:29:19.051Z,7.10
2022-12-28T01:31:47.651Z,7.23
2022-12-28T01:34:16.325Z,7.32
2022-12-28T01:36:47.648Z,7.17
2022-12-28T01:39:15.734Z,6.77
2022-12-28T01:41:44.103Z,6.75
2022-12-28T01:44:13.925Z,6.84
2022-12-28T01:46:45.374Z,6.92
2022-12-28T01:49:29.757Z,7.17
2022-12-28T01:52:06.940Z,6.68
2022-12-28T01:55:01.296Z,6.00
2022-12-28T01:57:34.276Z,5.50
2022-12-28T02:00:11.063Z,5.27
2022-12-28T02:03:07.487Z,4.96
2022-12-28T02:05:41.454Z,4.71
2022-12-28T02:08:15.404Z,4.98
2022-12-28T02:10:45.932Z,5.47
2022-12-28T02:13:18.209Z,5.65
2022-12-28T02:15:47.413Z,5.74
2022-12-28T02:18:18.417Z,5.88
2022-12-28T02:21:03.527Z,6.04
2022-12-28T02:23:38.480Z,6.20
2022-12-28T02:26:12.391Z,6.22
2022-12-28T02:29:17.841Z,6.27
2022-12-28T02:32:21.391Z,6.29
2022-12-28T02:34:58.639Z,6.40
2022-12-28T02:37:40.549Z,6.36
2022-12-28T02:40:15.407Z,6.10
2022-12-28T02:42:45.163Z,6.12
2022-12-28T02:45:57.652Z,6.23
2022-12-28T02:48:45.039Z,6.20
2022-12-28T02:51:47.272Z,6.16
2022-12-28T02:54:49.215Z,6.10
2022-12-28T02:57:33.245Z,5.99
2022-12-28T03:00:10.065Z,5.97
2022-12-28T03:03:03.285Z,6.01
2022-12-28T03:06:02.963Z,5.73
2022-12-28T03:08:37.931Z,5.72
2022-12-28T03:11:15.791Z,5.96
2022-12-28T03:14:03.121Z,6.11
2022-12-28T03:16:56.485Z,6.16
2022-12-28T03:19:49.743Z,6.07
2022-12-28T03:22:37.957Z,5.93
2022-12-28T03:25:31.835Z,5.79
2022-12-28T03:28:21.951Z,5.89
2022-12-28T03:31:09.243Z,6.05
2022-12-28T03:33:48.340Z,6.24
2022-12-28T03:36:32.533Z,6.19
2022-12-28T03:39:22.352Z,6.11
2022-12-28T03:42:14.765Z,5.96
2022-12-28T03:44:50.409Z,6.06
2022-12-28T03:47:21.554Z,6.24
2022-12-28T03:49:50.058Z,6.23
2022-12-28T03:52:18.719Z,6.01
2022-12-28T03:54:47.516Z,6.16
2022-12-28T03:57:17.128Z,6.29
2022-12-28T03:59:46.716Z,5.99
2022-12-28T04:02:15.046Z,5.63
2022-12-28T04:04:43.349Z,5.53
2022-12-28T04:07:11.446Z,5.42
2022-12-28T04:09:39.520Z,5.40
2022-12-28T04:12:09.436Z,5.47
2022-12-28T04:14:57.438Z,5.43
2022-12-28T04:17:25.494Z,5.04
2022-12-28T04:19:53.707Z,4.89
2022-12-28T04:22:21.782Z,4.72
2022-12-28T04:24:50.063Z,4.44
2022-12-28T04:27:18.231Z,4.08
2022-12-28T04:29:48.156Z,4.03
2022-12-28T04:32:20.529Z,4.10
2022-12-28T04:34:49.138Z,4.20
2022-12-28T04:37:18.999Z,4.04
2022-12-28T04:39:55.123Z,3.80
2022-12-28T04:42:26.228Z,3.92
2022-12-28T04:44:54.439Z,3.82
2022-12-28T04:47:22.534Z,3.43
2022-12-28T04:49:50.623Z,3.25
2022-12-28T04:52:18.894Z,3.35
2022-12-28T04:54:47.085Z,3.46
2022-12-28T04:57:15.414Z,3.47
2022-12-28T04:59:43.511Z,3.39
2022-12-28T05:02:11.766Z,3.50
2022-12-28T05:04:40.158Z,3.26
2022-12-28T05:07:08.242Z,3.24
2022-12-28T05:09:36.309Z,3.16
2022-12-28T05:12:05.197Z,3.09
2022-12-28T05:14:37.193Z,3.07
2022-12-28T05:17:05.739Z,3.15
2022-12-28T05:19:33.780Z,3.21
2022-12-28T05:22:01.886Z,3.15
2022-12-28T05:24:30.311Z,3.22
2022-12-28T05:26:58.542Z,3.14
2022-12-28T05:29:26.730Z,3.14
2022-12-28T05:31:55.161Z,3.37
2022-12-28T05:34:23.646Z,3.45
2022-12-28T05:36:51.669Z,3.47
2022-12-28T05:39:19.712Z,3.56
2022-12-28T05:41:47.832Z,3.67
2022-12-28T05:44:16.041Z,3.86
2022-12-28T05:46:45.260Z,3.95
2022-12-28T05:49:13.320Z,4.08
2022-12-28T05:51:41.640Z,4.04
2022-12-28T05:54:09.907Z,3.68
2022-12-28T05:56:38.037Z,3.25
2022-12-28T05:59:07.764Z,2.91
2022-12-28T06:01:41.076Z,2.64
2022-12-28T06:04:15.997Z,2.65
2022-12-28T06:06:45.770Z,2.63
2022-12-28T06:09:14.825Z,2.55
2022-12-28T06:11:43.764Z,2.43
2022-12-28T06:14:12.485Z,2.67
2022-12-28T06:16:42.317Z,2.86
2022-12-28T06:19:12.503Z,2.95
2022-12-28T06:21:41.878Z,3.29
2022-12-28T06:24:11.923Z,3.57
2022-12-28T06:26:41.519Z,3.85
2022-12-28T06:29:10.604Z,4.15
2022-12-28T06:31:41.291Z,4.79
2022-12-28T06:34:10.855Z,5.41
2022-12-28T06:36:41.646Z,5.92
2022-12-28T06:39:12.135Z,6.52
2022-12-28T06:41:41.581Z,7.17
2022-12-28T06:44:11.018Z,7.55
2022-12-28T06:46:39.999Z,7.89
2022-12-28T06:49:08.508Z,8.34
2022-12-28T06:51:42.354Z,8.85
2022-12-28T06:54:11.697Z,8.87
2022-12-28T06:56:40.039Z,9.08
2022-12-28T06:59:08.264Z,9.27
2022-12-28T07:01:39.145Z,9.31
2022-12-28T07:04:09.605Z,9.36
2022-12-28T07:06:42.634Z,9.57
2022-12-28T07:09:13.653Z,9.65
2022-12-28T07:11:43.557Z,9.85
2022-12-28T07:14:12.185Z,10.24
2022-12-28T07:19:08.660Z,11.08
2022-12-28T07:21:38.979Z,11.28
2022-12-28T07:24:08.181Z,11.38
2022-12-28T07:26:37.108Z,11.41
2022-12-28T07:29:08.115Z,11.32
2022-12-28T07:31:44.735Z,11.23
2022-12-28T07:34:15.362Z,11.52
2022-12-28T07:36:44.036Z,11.58
2022-12-28T07:39:12.383Z,11.08
2022-12-28T07:41:40.562Z,10.20
2022-12-28T07:44:08.662Z,9.59
2022-12-28T07:46:37.929Z,9.39
2022-12-28T07:49:06.701Z,9.15
2022-12-28T07:51:37.140Z,8.80
2022-12-28T07:54:06.236Z,8.45
2022-12-28T07:59:04.870Z,7.70
2022-12-28T08:01:35.417Z,7.10
2022-12-28T08:04:06.335Z,6.99
2022-12-28T08:06:40.372Z,6.69
2022-12-28T08:09:10.740Z,6.04
2022-12-28T08:11:41.280Z,5.82
2022-12-28T08:14:10.337Z,5.34
2022-12-28T08:16:41.203Z,5.07
2022-12-28T08:19:10.190Z,5.39
2022-12-28T08:21:44.644Z,5.72
2022-12-28T08:24:19.099Z,5.88
2022-12-28T08:26:48.935Z,6.16
2022-12-28T08:29:20.213Z,6.52
2022-12-28T08:31:49.139Z,6.75
2022-12-28T08:34:20.726Z,6.91
2022-12-28T08:36:48.800Z,6.93
2022-12-28T08:39:16.851Z,7.04
2022-12-28T08:41:45.195Z,6.88
2022-12-28T08:44:13.409Z,6.64
2022-12-28T08:46:41.953Z,6.81
2022-12-28T08:49:10.464Z,6.92
2022-12-28T08:51:41.529Z,6.72
2022-12-28T08:54:12.319Z,6.53
2022-12-28T08:56:42.671Z,6.43
2022-12-28T08:59:15.357Z,6.29
2022-12-28T09:01:44.989Z,5.89
2022-12-28T09:04:22.944Z,5.69
2022-12-28T09:06:51.440Z,5.51
2022-12-28T09:09:20.068Z,5.43
2022-12-28T09:11:48.910Z,5.59
2022-12-28T09:14:23.288Z,5.61
2022-12-28T09:16:55.587Z,5.87
2022-12-28T09:19:24.096Z,5.99
2022-12-28T09:21:53.515Z,6.38
2022-12-28T09:24:22.323Z,6.81
2022-12-28T09:26:53.036Z,7.00
2022-12-28T09:29:21.451Z,6.98
2022-12-28T09:31:49.620Z,7.22
2022-12-28T09:37:07.801Z,7.61
2022-12-28T09:39:36.009Z,7.75
2022-12-28T09:42:13.145Z,7.89
2022-12-28T09:44:50.580Z,8.16
2022-12-28T09:47:18.717Z,8.36
2022-12-28T09:50:09.355Z,8.47
2022-12-28T09:52:50.608Z,8.38
2022-12-28T09:55:19.661Z,8.51
2022-12-28T09:57:56.038Z,8.76
2022-12-28T10:00:39.086Z,9.01
2022-12-28T10:03:27.318Z,9.16
2022-12-28T10:05:58.097Z,9.24
2022-12-28T10:08:28.011Z,9.39
2022-12-28T10:11:02.331Z,9.45
2022-12-28T10:13:54.729Z,9.29
2022-12-28T10:16:26.341Z,9.13
2022-12-28T10:18:54.973Z,9.11
2022-12-28T10:21:32.499Z,9.16
2022-12-28T10:24:31.272Z,9.27
2022-12-28T10:26:57.438Z,9.44
2022-12-28T10:29:26.678Z,9.66
2022-12-28T10:32:02.787Z,9.70
2022-12-28T10:34:34.097Z,9.70
2022-12-28T10:37:17.180Z,9.55
2022-12-28T10:39:55.355Z,9.51
2022-12-28T10:42:32.449Z,9.30
2022-12-28T10:45:06.448Z,9.17
2022-12-28T10:47:42.157Z,9.07
2022-12-28T10:50:47.970Z,9.12
2022-12-28T10:53:17.687Z,9.01
2022-12-28T10:55:46.010Z,9.04
2022-12-28T10:58:33.604Z,9.19
2022-12-28T11:01:07.336Z,9.29
2022-12-28T11:03:38.025Z,9.46
2022-12-28T11:06:09.624Z,9.47
2022-12-28T11:08:39.851Z,9.48
2022-12-28T11:11:17.743Z,9.65
2022-12-28T11:13:48.921Z,9.82
2022-12-28T11:16:16.932Z,9.89
2022-12-28T11:18:45.227Z,9.99
2022-12-28T11:21:21.006Z,10.21
2022-12-28T11:23:51.261Z,10.38
2022-12-28T11:26:20.985Z,10.38
2022-12-28T11:28:54.128Z,10.31
2022-12-28T11:31:29.695Z,10.27
2022-12-28T11:34:03.510Z,10.12
2022-12-28T11:36:38.819Z,9.95
2022-12-28T11:39:43.942Z,9.89
2022-12-28T11:42:41.389Z,9.82
2022-12-28T11:45:15.318Z,9.88
2022-12-28T11:47:43.567Z,9.99
2022-12-28T11:50:39.473Z,10.00
2022-12-28T11:53:32.796Z,9.97
2022-12-28T11:56:08.705Z,10.11
2022-12-28T11:59:00.405Z,10.23
2022-12-28T12:01:29.446Z,10.26
2022-12-28T12:03:57.636Z,10.23
2022-12-28T12:06:54.854Z,10.14
2022-12-28T12:09:23.958Z,10.09
2022-12-28T12:11:53.347Z,10.09
2022-12-28T12:14:36.777Z,10.12
2022-12-28T12:17:41.273Z,10.29
2022-12-28T12:20:19.106Z,10.33
2022-12-28T12:22:57.333Z,10.36
2022-12-28T12:25:41.136Z,10.33
2022-12-28T12:28:27.865Z,10.29
2022-12-28T12:30:57.488Z,10.32
2022-12-28T12:33:30.594Z,10.33
2022-12-28T12:36:06.714Z,10.08
2022-12-28T12:38:46.663Z,10.00
2022-12-28T12:41:32.976Z,10.03
2022-12-28T12:44:20.186Z,10.04
2022-12-28T12:47:36.477Z,10.09
2022-12-28T12:50:20.504Z,10.13
2022-12-28T12:53:01.510Z,10.16
2022-12-28T12:56:04.546Z,10.19
2022-12-28T12:58:56.525Z,10.23
2022-12-28T13:01:37.134Z,10.26
2022-12-28T13:04:15.300Z,10.16
2022-12-28T13:06:44.385Z,10.14
2022-12-28T13:09:19.579Z,9.95
2022-12-28T13:11:48.453Z,9.82
2022-12-28T13:14:22.446Z,9.82
2022-12-28T13:16:54.700Z,9.81
2022-12-28T13:19:26.013Z,9.79
2022-12-28T13:21:55.546Z,9.83
2022-12-28T13:24:34.371Z,9.90
2022-12-28T13:27:07.640Z,9.85
2022-12-28T13:29:40.503Z,9.81
2022-12-28T13:32:38.437Z,9.95
2022-12-28T13:35:24.953Z,9.98
2022-12-28T13:38:12.584Z,9.83
2022-12-28T13:40:49.276Z,9.78
2022-12-28T13:43:35.744Z,9.61
2022-12-28T13:46:10.420Z,9.42
2022-12-28T13:48:46.645Z,9.39
2022-12-28T13:51:18.384Z,9.21
2022-12-28T13:53:51.388Z,9.03
2022-12-28T13:56:22.540Z,8.98
2022-12-28T13:59:04.914Z,8.89
2022-12-28T14:01:44.004Z,8.83
2022-12-28T14:07:14.704Z,8.64
2022-12-28T14:09:43.813Z,8.61
2022-12-28T14:12:13.665Z,8.66
2022-12-28T14:14:42.796Z,8.50
2022-12-28T14:17:12.264Z,8.28
2022-12-28T14:19:41.189Z,8.18
2022-12-28T14:22:27.064Z,8.06
2022-12-28T14:25:00.047Z,7.97
2022-12-28T14:27:30.373Z,7.84
2022-12-28T14:29:59.054Z,7.79
2022-12-28T14:32:27.296Z,7.65
2022-12-28T14:35:00.627Z,7.54
2022-12-28T14:37:40.061Z,7.42
2022-12-28T14:40:25.372Z,7.29
2022-12-28T14:42:54.990Z,7.13
2022-12-28T14:46:07.170Z,6.92
2022-12-28T14:48:40.834Z,6.75
2022-12-28T14:51:15.112Z,6.78
2022-12-28T14:53:45.916Z,6.74
2022-12-28T14:56:19.437Z,6.63
2022-12-28T14:59:00.151Z,6.68
2022-12-28T15:01:43.561Z,6.79
2022-12-28T15:04:38.192Z,6.99
2022-12-28T15:07:09.355Z,6.92
2022-12-28T15:09:38.353Z,6.90
2022-12-28T15:12:15.984Z,6.99
2022-12-28T15:14:46.513Z,6.96
2022-12-28T15:17:15.837Z,6.90
2022-12-28T15:19:45.850Z,6.89
2022-12-28T15:22:14.253Z,6.88
2022-12-28T15:24:45.495Z,6.81
2022-12-28T15:27:13.823Z,6.73
2022-12-28T15:32:30.475Z,6.63
2022-12-28T15:34:58.739Z,6.62
2022-12-28T15:37:27.052Z,6.58
2022-12-28T15:39:55.054Z,6.52
2022-12-28T15:42:23.080Z,6.45
2022-12-28T15:44:53.193Z,6.45
2022-12-28T15:47:21.675Z,6.65
2022-12-28T15:49:49.749Z,6.86
2022-12-28T15:52:18.191Z,6.98
2022-12-28T15:54:47.526Z,6.94
2022-12-28T15:57:16.028Z,6.81
2022-12-28T15:59:44.236Z,6.92
2022-12-28T16:02:12.889Z,7.02
2022-12-28T16:04:41.439Z,7.08
2022-12-28T16:07:10.028Z,7.12
2022-12-28T16:09:38.297Z,7.06
2022-12-28T16:12:06.691Z,6.96
2022-12-28T16:14:35.259Z,6.90
2022-12-28T16:17:03.376Z,6.90
2022-12-28T16:19:31.488Z,6.83
2022-12-28T16:21:59.663Z,6.66
2022-12-28T16:24:29.179Z,6.55
2022-12-28T16:26:57.442Z,6.41
2022-12-28T16:29:25.912Z,6.21
2022-12-28T16:31:55.359Z,6.07
2022-12-28T16:34:23.645Z,5.98
2022-12-28T16:36:56.997Z,5.99
2022-12-28T16:39:28.869Z,6.07
2022-12-28T16:41:58.253Z,6.05
2022-12-28T16:44:27.952Z,5.99
2022-12-28T16:47:01.073Z,5.93
2022-12-28T16:49:30.053Z,6.10
2022-12-28T16:51:58.972Z,6.22
2022-12-28T16:54:27.899Z,6.37
2022-12-28T16:56:56.319Z,6.33
2022-12-28T16:59:26.581Z,5.94
2022-12-28T17:01:56.484Z,5.72
2022-12-28T17:04:25.021Z,5.68
2022-12-28T17:06:53.597Z,5.67
2022-12-28T17:09:22.184Z,5.67
2022-12-28T17:11:50.947Z,5.69
2022-12-28T17:17:08.268Z,5.49
2022-12-28T17:19:36.520Z,5.61
2022-12-28T17:22:04.984Z,5.55
2022-12-28T17:24:33.534Z,5.34
2022-12-28T17:27:07.862Z,5.06
2022-12-28T17:29:38.281Z,5.01
2022-12-28T17:32:07.843Z,4.71
2022-12-28T17:34:36.286Z,4.79
2022-12-28T17:37:04.988Z,4.62
2022-12-28T17:39:39.665Z,4.49
2022-12-28T17:42:09.652Z,4.35
2022-12-28T17:44:38.305Z,4.07
2022-12-28T17:47:06.651Z,4.15
2022-12-28T17:49:35.149Z,4.55
2022-12-28T17:52:03.957Z,4.70
2022-12-28T17:54:32.539Z,4.69
2022-12-28T17:57:00.621Z,4.82
2022-12-28T17:59:28.849Z,5.06
2022-12-28T18:01:57.414Z,5.11
2022-12-28T18:04:26.421Z,5.04
2022-12-28T18:06:54.489Z,4.97
2022-12-28T18:09:27.672Z,4.98
2022-12-28T18:11:56.463Z,5.23
2022-12-28T18:14:25.991Z,5.39
2022-12-28T18:16:54.886Z,5.44
2022-12-28T18:19:23.063Z,5.42
2022-12-28T18:21:51.317Z,5.44
2022-12-28T18:24:21.166Z,5.40
2022-12-28T18:26:51.542Z,5.33
2022-12-28T18:29:19.653Z,5.41
2022-12-28T18:31:47.821Z,5.50
2022-12-28T18:34:16.993Z,5.76
2022-12-28T18:36:45.139Z,5.98
2022-12-28T18:39:13.282Z,5.97
2022-12-28T18:41:41.624Z,5.92
2022-12-28T18:44:10.436Z,5.93
2022-12-28T18:46:38.789Z,5.80
2022-12-28T18:49:07.160Z,5.63
2022-12-28T18:51:35.568Z,5.49
2022-12-28T18:54:03.956Z,5.47
2022-12-28T18:56:31.968Z,5.36
2022-12-28T18:58:59.978Z,5.14
2022-12-28T19:04:17.593Z,4.66
2022-12-28T19:06:49.443Z,4.63
2022-12-28T19:09:17.762Z,4.78
2022-12-28T19:11:45.993Z,5.07
2022-12-28T19:14:15.725Z,5.51
2022-12-28T19:16:45.271Z,5.55
2022-12-28T19:19:13.847Z,5.58
2022-12-28T19:21:42.911Z,5.67
2022-12-28T19:24:19.367Z,5.70
2022-12-28T19:26:47.941Z,5.66
2022-12-28T19:29:16.691Z,5.50
2022-12-28T19:31:44.974Z,5.14
2022-12-28T19:34:13.163Z,5.17
2022-12-28T19:36:41.450Z,5.18
2022-12-28T19:39:09.525Z,4.98
2022-12-28T19:41:37.883Z,4.84
2022-12-28T19:44:07.157Z,5.01
2022-12-28T19:46:35.183Z,5.13
2022-12-28T19:49:04.756Z,5.09
2022-12-28T19:51:33.476Z,5.11
2022-12-28T19:54:02.041Z,4.95
2022-12-28T19:56:31.076Z,4.89
2022-12-28T19:59:06.027Z,4.61
2022-12-28T20:01:37.003Z,4.62
2022-12-28T20:04:13.076Z,4.57
2022-12-28T20:06:45.203Z,4.46
2022-12-28T20:09:14.658Z,4.57
2022-12-28T20:11:45.002Z,4.52
2022-12-28T20:14:19.167Z,4.36
2022-12-28T20:16:51.942Z,4.37
2022-12-28T20:19:20.206Z,4.38
2022-12-28T20:21:49.672Z,4.23
2022-12-28T20:24:20.079Z,3.88
2022-12-28T20:26:48.216Z,3.53
2022-12-28T20:29:16.475Z,3.50
2022-12-28T20:31:45.030Z,3.83
2022-12-28T20:34:13.393Z,4.01
2022-12-28T20:36:41.713Z,3.97
2022-12-28T20:39:09.876Z,3.95
2022-12-28T20:41:56.905Z,3.99
2022-12-28T20:44:32.473Z,3.80
2022-12-28T20:47:02.155Z,3.81
2022-12-28T20:49:31.821Z,3.55
2022-12-28T20:51:59.963Z,3.44
2022-12-28T20:54:28.218Z,3.37
2022-12-28T20:56:56.556Z,3.30
2022-12-28T20:59:25.884Z,3.18
2022-12-28T21:01:54.664Z,3.12
2022-12-28T21:04:24.851Z,3.12
2022-12-28T21:06:54.132Z,3.25
2022-12-28T21:09:22.915Z,3.36
2022-12-28T21:11:51.085Z,3.37
2022-12-28T21:14:19.293Z,3.56
2022-12-28T21:16:48.046Z,3.77
2022-12-28T21:19:16.475Z,4.04
2022-12-28T21:21:44.571Z,4.26
2022-12-28T21:24:12.749Z,4.43
2022-12-28T21:26:40.742Z,4.21
2022-12-28T21:29:09.192Z,4.13
2022-12-28T21:31:37.586Z,4.17
2022-12-28T21:34:05.780Z,3.91
2022-12-28T21:36:34.108Z,3.78
2022-12-28T21:39:02.192Z,3.66
2022-12-28T21:41:48.462Z,4.04
2022-12-28T21:44:22.194Z,4.35
2022-12-28T21:46:54.446Z,4.39
2022-12-28T21:49:22.939Z,4.53
2022-12-28T21:51:51.765Z,4.76
2022-12-28T21:54:21.763Z,4.84
2022-12-28T21:56:55.285Z,4.72
2022-12-28T21:59:26.066Z,4.80
2022-12-28T22:02:12.951Z,5.10
2022-12-28T22:05:03.173Z,5.13
2022-12-28T22:07:34.817Z,4.98
2022-12-28T22:10:21.551Z,4.76
2022-12-28T22:12:49.592Z,4.84
2022-12-28T22:15:38.784Z,4.84
2022-12-28T22:18:30.206Z,4.72
2022-12-28T22:21:04.082Z,4.46
2022-12-28T22:23:34.768Z,4.35
2022-12-28T22:26:04.423Z,4.67
2022-12-28T22:28:32.769Z,4.65
2022-12-28T22:31:05.430Z,4.52
2022-12-28T22:33:34.428Z,4.49
2022-12-28T22:36:14.313Z,4.34
2022-12-28T22:38:43.338Z,4.39
2022-12-28T22:41:11.632Z,4.53
2022-12-28T22:43:39.850Z,4.42
2022-12-28T22:46:10.945Z,4.39
2022-12-28T22:48:39.478Z,4.01
2022-12-28T22:51:10.467Z,3.66
2022-12-28T22:53:39.350Z,3.69
2022-12-28T22:56:11.095Z,3.74
2022-12-28T22:58:39.230Z,3.96
2022-12-28T23:01:09.895Z,3.95
2022-12-28T23:03:39.268Z,3.80
2022-12-28T23:06:08.103Z,3.83
2022-12-28T23:08:36.425Z,3.73
2022-12-28T23:11:29.734Z,3.67
2022-12-28T23:14:21.229Z,4.10
2022-12-28T23:16:49.844Z,4.47
2022-12-28T23:19:36.659Z,4.68
2022-12-28T23:22:25.228Z,4.83
2022-12-28T23:25:11.688Z,4.93
2022-12-28T23:27:44.753Z,4.74
2022-12-28T23:30:17.724Z,4.46
2022-12-28T23:32:51.016Z,4.23
2022-12-28T23:35:21.060Z,4.33
2022-12-28T23:37:49.923Z,4.32
2022-12-28T23:40:20.232Z,4.22
2022-12-28T23:42:48.827Z,4.18
2022-12-28T23:45:18.518Z,4.06
2022-12-28T23:47:46.985Z,3.64
2022-12-28T23:50:17.132Z,3.44
2022-12-28T23:52:45.241Z,3.19
2022-12-28T23:55:13.775Z,3.15
2022-12-28T23:57:42.483Z,3.19
